Flushing, Michigan
Current Conditions -  °F | °C
As of 10:53 PM on Wednesday 26 Nov 2014 (Local Time) from KFNT Reporting Station
Overcast Overcast  
Wind Chill: 25°   Ceiling: 4200
Heat Index: 31°   Visibility: 10mi
Dew Point: 24°   Wind: 6mph
Humidity: 76%   Direction: 340°NNW
Pressure: 30.11"   Gusts: NA
Location:  43.06°N, 83.85°W
Report Text: KFNT 270353Z 34005KT 10SM FEW015 OVC042 M01/M04 A3011 RMK AO2 SLP205 T10061044
Loading
Personal Weather Stations






























Interactive Weather Map New forecast layout! Learn more

10-Day Weather Forecast

Advertisements
Track Severe Weather on mobile